sensor_id;sensor_type;location;lat;lon;timestamp;temperature;humidity
39621;DHT22;25309;48.686;9.170;2023-04-03T03:01:11;4.20;99.90
39621;DHT22;25309;48.686;9.170;2023-04-03T03:03:39;4.30;99.90
39621;DHT22;25309;48.686;9.170;2023-04-03T03:06:08;4.20;99.90
39621;DHT22;25309;48.686;9.170;2023-04-03T03:08:36;4.20;99.90
39621;DHT22;25309;48.686;9.170;2023-04-03T03:11:04;4.20;99.90
39621;DHT22;25309;48.686;9.170;2023-04-03T03:13:32;4.20;99.90
39621;DHT22;25309;48.686;9.170;2023-04-03T03:15:59;4.10;99.90
39621;DHT22;25309;48.686;9.170;2023-04-03T03:18:29;4.10;99.90
39621;DHT22;25309;48.686;9.170;2023-04-03T03:20:58;4.10;99.90
39621;DHT22;25309;48.686;9.170;2023-04-03T03:23:28;4.10;99.90
39621;DHT22;25309;48.686;9.170;2023-04-03T03:25:56;4.10;99.90
39621;DHT22;25309;48.686;9.170;2023-04-03T03:28:23;4.10;99.90
39621;DHT22;25309;48.686;9.170;2023-04-03T03:30:50;4.10;99.90
39621;DHT22;25309;48.686;9.170;2023-04-03T03:33:18;4.20;99.90
39621;DHT22;25309;48.686;9.170;2023-04-03T03:35:46;4.20;99.90
39621;DHT22;25309;48.686;9.170;2023-04-03T03:38:13;4.20;99.90
39621;DHT22;25309;48.686;9.170;2023-04-03T03:40:40;4.20;99.90
39621;DHT22;25309;48.686;9.170;2023-04-03T03:43:07;4.20;99.90
39621;DHT22;25309;48.686;9.170;2023-04-03T03:45:34;4.20;99.90
39621;DHT22;25309;48.686;9.170;2023-04-03T03:48:03;4.20;99.90
39621;DHT22;25309;48.686;9.170;2023-04-03T03:50:30;4.20;99.90
39621;DHT22;25309;48.686;9.170;2023-04-03T03:52:59;4.20;99.90
39621;DHT22;25309;48.686;9.170;2023-04-03T03:55:26;4.20;99.90
39621;DHT22;25309;48.686;9.170;2023-04-03T03:57:54;4.20;99.90
39621;DHT22;25309;48.686;9.170;2023-04-03T04:00:22;4.20;99.90
39621;DHT22;25309;48.686;9.170;2023-04-03T04:02:53;4.20;99.90
39621;DHT22;25309;48.686;9.170;2023-04-03T04:05:25;4.20;99.90
39621;DHT22;25309;48.686;9.170;2023-04-03T04:07:53;4.20;99.90
39621;DHT22;25309;48.686;9.170;2023-04-03T04:10:22;4.10;99.90
39621;DHT22;25309;48.686;9.170;2023-04-03T04:12:49;4.10;99.90
39621;DHT22;25309;48.686;9.170;2023-04-03T04:15:21;4.10;99.90
39621;DHT22;25309;48.686;9.170;2023-04-03T04:17:48;4.10;99.90
39621;DHT22;25309;48.686;9.170;2023-04-03T04:20:16;4.10;99.90
39621;DHT22;25309;48.686;9.170;2023-04-03T04:22:43;4.10;99.90
39621;DHT22;25309;48.686;9.170;2023-04-03T04:25:10;4.10;99.90
39621;DHT22;25309;48.686;9.170;2023-04-03T04:27:40;4.10;99.90
39621;DHT22;25309;48.686;9.170;2023-04-03T04:30:08;4.10;99.90
39621;DHT22;25309;48.686;9.170;2023-04-03T04:32:37;4.10;99.90
39621;DHT22;25309;48.686;9.170;2023-04-03T04:35:04;4.10;99.90
39621;DHT22;25309;48.686;9.170;2023-04-03T04:37:34;4.10;99.90
39621;DHT22;25309;48.686;9.170;2023-04-03T04:40:02;4.10;99.90
39621;DHT22;25309;48.686;9.170;2023-04-03T04:42:29;4.10;99.90
39621;DHT22;25309;48.686;9.170;2023-04-03T04:44:58;4.10;99.90
39621;DHT22;25309;48.686;9.170;2023-04-03T04:47:25;4.10;99.90
39621;DHT22;25309;48.686;9.170;2023-04-03T04:49:52;4.10;99.90
39621;DHT22;25309;48.686;9.170;2023-04-03T04:52:19;4.20;99.90
39621;DHT22;25309;48.686;9.170;2023-04-03T04:54:46;4.20;99.90
39621;DHT22;25309;48.686;9.170;2023-04-03T04:57:13;4.20;99.90
39621;DHT22;25309;48.686;9.170;2023-04-03T04:59:40;4.20;99.90
39621;DHT22;25309;48.686;9.170;2023-04-03T05:02:09;4.20;99.90
39621;DHT22;25309;48.686;9.170;2023-04-03T05:04:37;4.20;99.90
39621;DHT22;25309;48.686;9.170;2023-04-03T05:07:10;4.20;99.90
39621;DHT22;25309;48.686;9.170;2023-04-03T05:09:38;4.20;99.90
39621;DHT22;25309;48.686;9.170;2023-04-03T05:12:05;4.20;99.90
39621;DHT22;25309;48.686;9.170;2023-04-03T05:14:38;4.20;99.90
39621;DHT22;25309;48.686;9.170;2023-04-03T05:17:09;4.20;99.90
39621;DHT22;25309;48.686;9.170;2023-04-03T05:19:39;4.10;99.90
39621;DHT22;25309;48.686;9.170;2023-04-03T05:22:08;4.20;99.90
39621;DHT22;25309;48.686;9.170;2023-04-03T05:24:35;4.20;99.90
39621;DHT22;25309;48.686;9.170;2023-04-03T05:27:03;4.20;99.90
39621;DHT22;25309;48.686;9.170;2023-04-03T05:29:33;4.20;99.90
39621;DHT22;25309;48.686;9.170;2023-04-03T05:32:01;4.20;99.90
39621;DHT22;25309;48.686;9.170;2023-04-03T05:34:30;4.20;99.90
39621;DHT22;25309;48.686;9.170;2023-04-03T05:36:57;4.20;99.90
39621;DHT22;25309;48.686;9.170;2023-04-03T05:39:26;4.20;99.90
39621;DHT22;25309;48.686;9.170;2023-04-03T05:41:54;4.30;99.90
39621;DHT22;25309;48.686;9.170;2023-04-03T05:44:21;4.30;99.90
39621;DHT22;25309;48.686;9.170;2023-04-03T05:46:50;4.20;99.90
39621;DHT22;25309;48.686;9.170;2023-04-03T05:49:17;4.20;99.90
39621;DHT22;25309;48.686;9.170;2023-04-03T05:51:45;4.20;99.90
39621;DHT22;25309;48.686;9.170;2023-04-03T05:54:19;4.20;99.90
39621;DHT22;25309;48.686;9.170;2023-04-03T05:56:47;4.20;99.90
39621;DHT22;25309;48.686;9.170;2023-04-03T05:59:15;4.30;99.90
39621;DHT22;25309;48.686;9.170;2023-04-03T06:01:42;4.30;99.90
39621;DHT22;25309;48.686;9.170;2023-04-03T06:04:09;4.30;99.90
39621;DHT22;25309;48.686;9.170;2023-04-03T06:06:47;4.30;99.90
39621;DHT22;25309;48.686;9.170;2023-04-03T06:09:15;4.30;99.90
39621;DHT22;25309;48.686;9.170;2023-04-03T06:11:43;4.30;99.90
39621;DHT22;25309;48.686;9.170;2023-04-03T06:14:10;4.40;99.90
39621;DHT22;25309;48.686;9.170;2023-04-03T06:16:37;4.40;99.90
39621;DHT22;25309;48.686;9.170;2023-04-03T06:19:07;4.40;99.90
39621;DHT22;25309;48.686;9.170;2023-04-03T06:21:36;4.40;99.90
39621;DHT22;25309;48.686;9.170;2023-04-03T06:24:05;4.50;99.90
39621;DHT22;25309;48.686;9.170;2023-04-03T06:26:33;4.50;99.90
39621;DHT22;25309;48.686;9.170;2023-04-03T06:29:00;4.60;99.90
39621;DHT22;25309;48.686;9.170;2023-04-03T06:31:27;4.60;99.90
39621;DHT22;25309;48.686;9.170;2023-04-03T06:33:53;4.70;99.90
39621;DHT22;25309;48.686;9.170;2023-04-03T06:36:20;4.70;99.90
39621;DHT22;25309;48.686;9.170;2023-04-03T06:38:48;4.70;99.90
39621;DHT22;25309;48.686;9.170;2023-04-03T06:41:17;4.80;99.90
39621;DHT22;25309;48.686;9.170;2023-04-03T06:43:44;4.80;99.90
39621;DHT22;25309;48.686;9.170;2023-04-03T06:46:15;4.90;99.90
39621;DHT22;25309;48.686;9.170;2023-04-03T06:48:42;4.90;99.90
39621;DHT22;25309;48.686;9.170;2023-04-03T06:51:16;5.00;99.90
39621;DHT22;25309;48.686;9.170;2023-04-03T06:53:44;5.10;99.90
39621;DHT22;25309;48.686;9.170;2023-04-03T06:56:12;5.10;99.90
39621;DHT22;25309;48.686;9.170;2023-04-03T06:58:40;5.20;99.90
39621;DHT22;25309;48.686;9.170;2023-04-03T07:01:08;5.20;99.90
39621;DHT22;25309;48.686;9.170;2023-04-03T07:03:36;5.20;99.90
39621;DHT22;25309;48.686;9.170;2023-04-03T07:06:04;5.20;99.90
39621;DHT22;25309;48.686;9.170;2023-04-03T07:08:31;5.20;99.90
39621;DHT22;25309;48.686;9.170;2023-04-03T07:10:58;5.30;99.90
39621;DHT22;25309;48.686;9.170;2023-04-03T07:13:25;5.30;99.90
39621;DHT22;25309;48.686;9.170;2023-04-03T07:15:54;5.40;99.90
39621;DHT22;25309;48.686;9.170;2023-04-03T07:18:21;5.50;99.90
39621;DHT22;25309;48.686;9.170;2023-04-03T07:20:48;5.60;99.90
39621;DHT22;25309;48.686;9.170;2023-04-03T07:23:16;5.60;99.90
39621;DHT22;25309;48.686;9.170;2023-04-03T07:25:43;5.70;99.90
39621;DHT22;25309;48.686;9.170;2023-04-03T07:28:10;5.70;99.90
39621;DHT22;25309;48.686;9.170;2023-04-03T07:30:43;5.80;99.90
39621;DHT22;25309;48.686;9.170;2023-04-03T07:33:12;5.90;99.90
39621;DHT22;25309;48.686;9.170;2023-04-03T07:35:39;5.90;99.90
39621;DHT22;25309;48.686;9.170;2023-04-03T07:38:07;6.00;99.90
39621;DHT22;25309;48.686;9.170;2023-04-03T07:40:34;6.00;99.90
39621;DHT22;25309;48.686;9.170;2023-04-03T07:43:01;6.10;99.90
39621;DHT22;25309;48.686;9.170;2023-04-03T07:45:29;6.30;99.90
39621;DHT22;25309;48.686;9.170;2023-04-03T07:47:55;6.40;99.90
39621;DHT22;25309;48.686;9.170;2023-04-03T07:50:24;6.40;99.90
39621;DHT22;25309;48.686;9.170;2023-04-03T07:52:51;6.60;99.90
39621;DHT22;25309;48.686;9.170;2023-04-03T07:55:21;6.70;99.90
39621;DHT22;25309;48.686;9.170;2023-04-03T07:57:47;6.70;99.90
39621;DHT22;25309;48.686;9.170;2023-04-03T08:00:18;6.80;99.90
39621;DHT22;25309;48.686;9.170;2023-04-03T08:02:46;6.80;99.90
39621;DHT22;25309;48.686;9.170;2023-04-03T08:05:17;6.90;99.90
39621;DHT22;25309;48.686;9.170;2023-04-03T08:07:46;6.80;99.90
39621;DHT22;25309;48.686;9.170;2023-04-03T08:10:14;6.80;99.90
39621;DHT22;25309;48.686;9.170;2023-04-03T08:12:41;6.90;99.90
39621;DHT22;25309;48.686;9.170;2023-04-03T08:15:09;7.00;99.90
39621;DHT22;25309;48.686;9.170;2023-04-03T08:17:36;7.20;99.90
39621;DHT22;25309;48.686;9.170;2023-04-03T08:20:04;7.40;99.90
39621;DHT22;25309;48.686;9.170;2023-04-03T08:22:33;7.60;99.90
39621;DHT22;25309;48.686;9.170;2023-04-03T08:25:01;7.70;99.90
39621;DHT22;25309;48.686;9.170;2023-04-03T08:27:29;7.70;99.90
39621;DHT22;25309;48.686;9.170;2023-04-03T08:29:56;7.80;99.90
39621;DHT22;25309;48.686;9.170;2023-04-03T08:32:24;8.00;99.90
39621;DHT22;25309;48.686;9.170;2023-04-03T08:34:51;8.10;99.90
39621;DHT22;25309;48.686;9.170;2023-04-03T08:37:18;8.30;99.90
39621;DHT22;25309;48.686;9.170;2023-04-03T08:39:45;8.40;99.90
39621;DHT22;25309;48.686;9.170;2023-04-03T08:42:22;8.50;99.90
39621;DHT22;25309;48.686;9.170;2023-04-03T08:44:59;8.70;99.90
39621;DHT22;25309;48.686;9.170;2023-04-03T08:47:30;9.10;99.90
39621;DHT22;25309;48.686;9.170;2023-04-03T08:50:02;9.50;99.90
39621;DHT22;25309;48.686;9.170;2023-04-03T08:52:35;9.60;99.90
39621;DHT22;25309;48.686;9.170;2023-04-03T08:55:05;9.50;99.90
39621;DHT22;25309;48.686;9.170;2023-04-03T08:57:36;9.50;99.90
39621;DHT22;25309;48.686;9.170;2023-04-03T09:00:15;9.40;99.90
39621;DHT22;25309;48.686;9.170;2023-04-03T09:02:45;9.50;99.90
39621;DHT22;25309;48.686;9.170;2023-04-03T09:05:15;9.40;99.90
39621;DHT22;25309;48.686;9.170;2023-04-03T09:07:49;9.20;99.90
39621;DHT22;25309;48.686;9.170;2023-04-03T09:10:26;9.00;99.90
39621;DHT22;25309;48.686;9.170;2023-04-03T09:12:59;8.80;99.90
39621;DHT22;25309;48.686;9.170;2023-04-03T09:15:28;8.80;99.90
39621;DHT22;25309;48.686;9.170;2023-04-03T09:18:09;8.80;99.90
39621;DHT22;25309;48.686;9.170;2023-04-03T09:20:45;8.70;99.90
39621;DHT22;25309;48.686;9.170;2023-04-03T09:23:22;8.50;99.90
39621;DHT22;25309;48.686;9.170;2023-04-03T09:25:52;8.50;99.90
39621;DHT22;25309;48.686;9.170;2023-04-03T09:28:21;8.40;99.90
39621;DHT22;25309;48.686;9.170;2023-04-03T09:30:48;8.40;99.90
39621;DHT22;25309;48.686;9.170;2023-04-03T09:33:16;8.30;99.90
39621;DHT22;25309;48.686;9.170;2023-04-03T09:35:43;8.30;99.90
39621;DHT22;25309;48.686;9.170;2023-04-03T09:38:19;8.30;99.90
39621;DHT22;25309;48.686;9.170;2023-04-03T09:40:48;8.30;99.90
39621;DHT22;25309;48.686;9.170;2023-04-03T09:43:26;8.20;99.90
39621;DHT22;25309;48.686;9.170;2023-04-03T09:45:53;8.10;99.90
39621;DHT22;25309;48.686;9.170;2023-04-03T09:48:22;8.00;99.90
39621;DHT22;25309;48.686;9.170;2023-04-03T09:50:58;7.90;99.90
39621;DHT22;25309;48.686;9.170;2023-04-03T09:53:32;7.90;99.90
39621;DHT22;25309;48.686;9.170;2023-04-03T09:55:59;7.80;99.90
39621;DHT22;25309;48.686;9.170;2023-04-03T09:58:30;7.90;99.90
39621;DHT22;25309;48.686;9.170;2023-04-03T10:01:22;8.10;99.90
39621;DHT22;25309;48.686;9.170;2023-04-03T10:04:08;8.30;99.90
39621;DHT22;25309;48.686;9.170;2023-04-03T10:06:37;8.50;99.90
39621;DHT22;25309;48.686;9.170;2023-04-03T10:09:17;8.60;99.90
39621;DHT22;25309;48.686;9.170;2023-04-03T10:12:00;8.80;99.90
39621;DHT22;25309;48.686;9.170;2023-04-03T10:14:29;8.80;99.90
39621;DHT22;25309;48.686;9.170;2023-04-03T10:17:12;8.90;99.90
39621;DHT22;25309;48.686;9.170;2023-04-03T10:19:43;9.20;99.90
39621;DHT22;25309;48.686;9.170;2023-04-03T10:22:25;9.30;99.90
39621;DHT22;25309;48.686;9.170;2023-04-03T10:25:02;9.20;99.90
39621;DHT22;25309;48.686;9.170;2023-04-03T10:27:48;9.20;99.90
39621;DHT22;25309;48.686;9.170;2023-04-03T10:30:29;9.00;99.80
39621;DHT22;25309;48.686;9.170;2023-04-03T10:33:05;9.00;99.90
39621;DHT22;25309;48.686;9.170;2023-04-03T10:35:44;9.10;99.90
39621;DHT22;25309;48.686;9.170;2023-04-03T10:38:16;9.10;99.90
39621;DHT22;25309;48.686;9.170;2023-04-03T10:40:50;9.00;99.70
39621;DHT22;25309;48.686;9.170;2023-04-03T10:43:23;9.00;99.50
39621;DHT22;25309;48.686;9.170;2023-04-03T10:45:58;8.80;98.90
39621;DHT22;25309;48.686;9.170;2023-04-03T10:48:39;8.80;98.60
39621;DHT22;25309;48.686;9.170;2023-04-03T10:51:16;8.80;98.20
39621;DHT22;25309;48.686;9.170;2023-04-03T10:53:53;8.90;98.20
39621;DHT22;25309;48.686;9.170;2023-04-03T10:56:30;8.90;98.60
39621;DHT22;25309;48.686;9.170;2023-04-03T10:59:06;8.80;97.70
39621;DHT22;25309;48.686;9.170;2023-04-03T11:01:39;8.80;98.20
39621;DHT22;25309;48.686;9.170;2023-04-03T11:04:09;8.60;99.00
39621;DHT22;25309;48.686;9.170;2023-04-03T11:06:41;8.50;99.20
39621;DHT22;25309;48.686;9.170;2023-04-03T11:09:18;8.40;98.60
39621;DHT22;25309;48.686;9.170;2023-04-03T11:11:47;8.20;98.80
39621;DHT22;25309;48.686;9.170;2023-04-03T11:14:22;8.10;99.00
39621;DHT22;25309;48.686;9.170;2023-04-03T11:16:59;8.00;99.40
39621;DHT22;25309;48.686;9.170;2023-04-03T11:19:34;7.90;99.90
39621;DHT22;25309;48.686;9.170;2023-04-03T11:22:06;7.90;99.90
39621;DHT22;25309;48.686;9.170;2023-04-03T11:24:38;7.90;99.90
39621;DHT22;25309;48.686;9.170;2023-04-03T11:27:13;7.90;99.90
39621;DHT22;25309;48.686;9.170;2023-04-03T11:29:45;7.90;99.20
39621;DHT22;25309;48.686;9.170;2023-04-03T11:32:29;7.80;99.20
39621;DHT22;25309;48.686;9.170;2023-04-03T11:35:02;7.70;98.60
39621;DHT22;25309;48.686;9.170;2023-04-03T11:37:33;7.60;98.70
39621;DHT22;25309;48.686;9.170;2023-04-03T11:40:06;7.60;98.70
39621;DHT22;25309;48.686;9.170;2023-04-03T11:42:37;7.50;98.90
39621;DHT22;25309;48.686;9.170;2023-04-03T11:45:25;7.50;99.10
39621;DHT22;25309;48.686;9.170;2023-04-03T11:47:57;7.60;99.20
39621;DHT22;25309;48.686;9.170;2023-04-03T11:50:44;7.60;99.30
39621;DHT22;25309;48.686;9.170;2023-04-03T11:53:41;7.70;98.90
39621;DHT22;25309;48.686;9.170;2023-04-03T11:56:27;7.90;98.50
39621;DHT22;25309;48.686;9.170;2023-04-03T11:59:22;8.00;97.30
39621;DHT22;25309;48.686;9.170;2023-04-03T12:01:50;8.00;97.10
39621;DHT22;25309;48.686;9.170;2023-04-03T12:04:20;8.10;97.20
39621;DHT22;25309;48.686;9.170;2023-04-03T12:07:11;8.10;97.30
39621;DHT22;25309;48.686;9.170;2023-04-03T12:10:18;8.00;96.60
39621;DHT22;25309;48.686;9.170;2023-04-03T12:12:59;8.00;96.10
39621;DHT22;25309;48.686;9.170;2023-04-03T12:15:51;8.00;96.00
39621;DHT22;25309;48.686;9.170;2023-04-03T12:18:55;7.90;95.70
39621;DHT22;25309;48.686;9.170;2023-04-03T12:24:31;7.80;95.80
39621;DHT22;25309;48.686;9.170;2023-04-03T12:27:34;7.80;96.50
39621;DHT22;25309;48.686;9.170;2023-04-03T12:30:19;7.80;95.90
39621;DHT22;25309;48.686;9.170;2023-04-03T12:35:44;7.80;96.00
39621;DHT22;25309;48.686;9.170;2023-04-03T12:38:37;7.80;96.30
39621;DHT22;25309;48.686;9.170;2023-04-03T12:41:23;7.90;96.40
39621;DHT22;25309;48.686;9.170;2023-04-03T12:44:15;8.10;96.00
39621;DHT22;25309;48.686;9.170;2023-04-03T12:46:47;8.40;96.20
39621;DHT22;25309;48.686;9.170;2023-04-03T12:49:26;8.60;96.20
39621;DHT22;25309;48.686;9.170;2023-04-03T12:51:57;8.70;95.90
39621;DHT22;25309;48.686;9.170;2023-04-03T12:54:29;8.80;95.30
39621;DHT22;25309;48.686;9.170;2023-04-03T12:57:09;8.70;95.50
39621;DHT22;25309;48.686;9.170;2023-04-03T12:59:37;8.70;95.50
39621;DHT22;25309;48.686;9.170;2023-04-03T13:02:15;8.60;95.30
39621;DHT22;25309;48.686;9.170;2023-04-03T13:04:44;8.50;94.90
39621;DHT22;25309;48.686;9.170;2023-04-03T13:07:22;8.50;95.00
39621;DHT22;25309;48.686;9.170;2023-04-03T13:09:59;8.50;94.90
39621;DHT22;25309;48.686;9.170;2023-04-03T13:12:26;8.50;94.70
39621;DHT22;25309;48.686;9.170;2023-04-03T13:14:56;8.60;94.80
39621;DHT22;25309;48.686;9.170;2023-04-03T13:17:25;8.60;94.40
39621;DHT22;25309;48.686;9.170;2023-04-03T13:19:54;8.60;93.70
39621;DHT22;25309;48.686;9.170;2023-04-03T13:22:27;8.70;93.30
39621;DHT22;25309;48.686;9.170;2023-04-03T13:24:59;8.80;92.80
39621;DHT22;25309;48.686;9.170;2023-04-03T13:27:30;8.90;92.80
39621;DHT22;25309;48.686;9.170;2023-04-03T13:30:00;9.10;92.50
39621;DHT22;25309;48.686;9.170;2023-04-03T13:32:29;9.20;92.70
39621;DHT22;25309;48.686;9.170;2023-04-03T13:34:57;9.40;92.80
39621;DHT22;25309;48.686;9.170;2023-04-03T13:37:55;9.40;92.60
39621;DHT22;25309;48.686;9.170;2023-04-03T13:40:23;9.40;93.20
39621;DHT22;25309;48.686;9.170;2023-04-03T13:43:04;9.30;93.30
39621;DHT22;25309;48.686;9.170;2023-04-03T13:45:33;9.10;93.40
39621;DHT22;25309;48.686;9.170;2023-04-03T13:48:14;9.00;93.50
39621;DHT22;25309;48.686;9.170;2023-04-03T13:50:56;8.90;93.80
39621;DHT22;25309;48.686;9.170;2023-04-03T13:53:25;8.80;93.70
39621;DHT22;25309;48.686;9.170;2023-04-03T13:55:57;8.80;94.00
39621;DHT22;25309;48.686;9.170;2023-04-03T13:58:25;8.80;93.80
39621;DHT22;25309;48.686;9.170;2023-04-03T14:00:54;8.80;93.00
39621;DHT22;25309;48.686;9.170;2023-04-03T14:03:24;8.90;93.50
39621;DHT22;25309;48.686;9.170;2023-04-03T14:05:51;8.90;93.30
39621;DHT22;25309;48.686;9.170;2023-04-03T14:08:19;8.90;92.10
39621;DHT22;25309;48.686;9.170;2023-04-03T14:10:59;8.90;92.00
39621;DHT22;25309;48.686;9.170;2023-04-03T14:13:29;8.90;91.50
39621;DHT22;25309;48.686;9.170;2023-04-03T14:15:56;9.00;91.70
39621;DHT22;25309;48.686;9.170;2023-04-03T14:18:31;9.00;91.10
39621;DHT22;25309;48.686;9.170;2023-04-03T14:20:58;9.00;91.30
39621;DHT22;25309;48.686;9.170;2023-04-03T14:23:25;9.00;91.30
39621;DHT22;25309;48.686;9.170;2023-04-03T14:25:52;8.90;91.10
39621;DHT22;25309;48.686;9.170;2023-04-03T14:28:22;8.90;91.00
39621;DHT22;25309;48.686;9.170;2023-04-03T14:30:50;8.90;91.60
39621;DHT22;25309;48.686;9.170;2023-04-03T14:33:20;9.00;91.90
39621;DHT22;25309;48.686;9.170;2023-04-03T14:35:48;9.10;92.50
39621;DHT22;25309;48.686;9.170;2023-04-03T14:38:22;9.10;92.90
39621;DHT22;25309;48.686;9.170;2023-04-03T14:40:51;9.20;93.10
39621;DHT22;25309;48.686;9.170;2023-04-03T14:43:18;9.10;92.30
39621;DHT22;25309;48.686;9.170;2023-04-03T14:45:47;9.10;91.70
39621;DHT22;25309;48.686;9.170;2023-04-03T14:48:18;9.10;91.60
39621;DHT22;25309;48.686;9.170;2023-04-03T14:50:46;9.00;91.20
39621;DHT22;25309;48.686;9.170;2023-04-03T14:53:30;9.10;91.50
39621;DHT22;25309;48.686;9.170;2023-04-03T14:56:11;9.30;91.70
39621;DHT22;25309;48.686;9.170;2023-04-03T14:58:38;9.60;91.80
39621;DHT22;25309;48.686;9.170;2023-04-03T15:01:09;10.10;91.60
39621;DHT22;25309;48.686;9.170;2023-04-03T15:03:37;10.50;91.30
39621;DHT22;25309;48.686;9.170;2023-04-03T15:06:04;10.70;90.00
39621;DHT22;25309;48.686;9.170;2023-04-03T15:08:31;10.70;90.50
39621;DHT22;25309;48.686;9.170;2023-04-03T15:10:58;10.50;90.00
39621;DHT22;25309;48.686;9.170;2023-04-03T15:13:25;10.30;90.20
39621;DHT22;25309;48.686;9.170;2023-04-03T15:15:53;10.10;90.30
39621;DHT22;25309;48.686;9.170;2023-04-03T15:18:23;9.90;90.60
39621;DHT22;25309;48.686;9.170;2023-04-03T15:20:50;9.80;90.50
39621;DHT22;25309;48.686;9.170;2023-04-03T15:23:18;9.60;90.90
39621;DHT22;25309;48.686;9.170;2023-04-03T15:25:46;9.40;91.00
39621;DHT22;25309;48.686;9.170;2023-04-03T15:28:19;9.30;90.70
39621;DHT22;25309;48.686;9.170;2023-04-03T15:30:48;9.20;90.90
39621;DHT22;25309;48.686;9.170;2023-04-03T15:33:15;9.10;91.20
39621;DHT22;25309;48.686;9.170;2023-04-03T15:35:44;9.00;91.20
39621;DHT22;25309;48.686;9.170;2023-04-03T15:38:11;9.00;91.80
39621;DHT22;25309;48.686;9.170;2023-04-03T15:40:38;9.00;91.50
39621;DHT22;25309;48.686;9.170;2023-04-03T15:43:05;9.10;91.30
39621;DHT22;25309;48.686;9.170;2023-04-03T15:45:34;9.00;91.60
39621;DHT22;25309;48.686;9.170;2023-04-03T15:48:02;9.00;91.70
39621;DHT22;25309;48.686;9.170;2023-04-03T15:50:29;9.00;91.50
39621;DHT22;25309;48.686;9.170;2023-04-03T15:52:58;9.00;90.60
39621;DHT22;25309;48.686;9.170;2023-04-03T15:55:25;9.00;90.50
39621;DHT22;25309;48.686;9.170;2023-04-03T15:57:53;8.80;90.40
39621;DHT22;25309;48.686;9.170;2023-04-03T16:00:21;8.70;91.00
39621;DHT22;25309;48.686;9.170;2023-04-03T16:02:50;8.80;90.70
39621;DHT22;25309;48.686;9.170;2023-04-03T16:05:19;8.70;91.00
39621;DHT22;25309;48.686;9.170;2023-04-03T16:07:46;8.60;90.60
39621;DHT22;25309;48.686;9.170;2023-04-03T16:10:16;8.60;91.20
39621;DHT22;25309;48.686;9.170;2023-04-03T16:12:43;8.60;91.30
39621;DHT22;25309;48.686;9.170;2023-04-03T16:15:11;8.70;91.40
39621;DHT22;25309;48.686;9.170;2023-04-03T16:17:40;8.70;91.20
39621;DHT22;25309;48.686;9.170;2023-04-03T16:20:11;8.70;90.70
39621;DHT22;25309;48.686;9.170;2023-04-03T16:22:40;8.80;90.70
39621;DHT22;25309;48.686;9.170;2023-04-03T16:25:08;8.70;90.10
39621;DHT22;25309;48.686;9.170;2023-04-03T16:27:37;8.70;90.30
39621;DHT22;25309;48.686;9.170;2023-04-03T16:30:06;8.60;90.10
39621;DHT22;25309;48.686;9.170;2023-04-03T16:32:34;8.60;90.10
39621;DHT22;25309;48.686;9.170;2023-04-03T16:35:03;8.40;89.80
39621;DHT22;25309;48.686;9.170;2023-04-03T16:37:30;8.30;90.30
39621;DHT22;25309;48.686;9.170;2023-04-03T16:39:58;8.20;90.10
39621;DHT22;25309;48.686;9.170;2023-04-03T16:42:25;8.00;90.00
39621;DHT22;25309;48.686;9.170;2023-04-03T16:44:54;7.90;90.00
39621;DHT22;25309;48.686;9.170;2023-04-03T16:47:21;7.80;90.20
39621;DHT22;25309;48.686;9.170;2023-04-03T16:49:47;7.70;90.20
39621;DHT22;25309;48.686;9.170;2023-04-03T16:52:15;7.70;90.30
39621;DHT22;25309;48.686;9.170;2023-04-03T16:54:42;7.70;90.50
39621;DHT22;25309;48.686;9.170;2023-04-03T16:57:08;7.70;90.40
39621;DHT22;25309;48.686;9.170;2023-04-03T16:59:35;7.70;90.50
39621;DHT22;25309;48.686;9.170;2023-04-03T17:02:04;7.70;90.40
39621;DHT22;25309;48.686;9.170;2023-04-03T17:04:31;7.70;90.20
39621;DHT22;25309;48.686;9.170;2023-04-03T17:06:58;7.70;90.40
39621;DHT22;25309;48.686;9.170;2023-04-03T17:09:26;7.60;90.70
39621;DHT22;25309;48.686;9.170;2023-04-03T17:11:53;7.60;90.80
39621;DHT22;25309;48.686;9.170;2023-04-03T17:14:20;7.60;90.60
39621;DHT22;25309;48.686;9.170;2023-04-03T17:16:47;7.50;90.50
39621;DHT22;25309;48.686;9.170;2023-04-03T17:19:15;7.40;90.80
39621;DHT22;25309;48.686;9.170;2023-04-03T17:21:44;7.40;91.10
39621;DHT22;25309;48.686;9.170;2023-04-03T17:24:12;7.40;91.10
39621;DHT22;25309;48.686;9.170;2023-04-03T17:26:40;7.50;91.30
39621;DHT22;25309;48.686;9.170;2023-04-03T17:29:07;7.40;90.80
39621;DHT22;25309;48.686;9.170;2023-04-03T17:31:34;7.40;90.60
39621;DHT22;25309;48.686;9.170;2023-04-03T17:34:02;7.40;90.90
39621;DHT22;25309;48.686;9.170;2023-04-03T17:36:31;7.40;91.20
39621;DHT22;25309;48.686;9.170;2023-04-03T17:38:59;7.30;91.50
39621;DHT22;25309;48.686;9.170;2023-04-03T17:41:27;7.20;91.00
39621;DHT22;25309;48.686;9.170;2023-04-03T17:43:53;7.10;90.70
39621;DHT22;25309;48.686;9.170;2023-04-03T17:46:23;7.10;90.80
39621;DHT22;25309;48.686;9.170;2023-04-03T17:48:50;7.00;90.80
39621;DHT22;25309;48.686;9.170;2023-04-03T17:51:20;7.00;91.20
39621;DHT22;25309;48.686;9.170;2023-04-03T17:53:48;7.00;91.50
39621;DHT22;25309;48.686;9.170;2023-04-03T17:56:17;7.00;91.60
39621;DHT22;25309;48.686;9.170;2023-04-03T17:58:45;6.90;91.40
39621;DHT22;25309;48.686;9.170;2023-04-03T18:01:15;6.90;91.60
39621;DHT22;25309;48.686;9.170;2023-04-03T18:03:43;6.90;91.40
39621;DHT22;25309;48.686;9.170;2023-04-03T18:06:13;6.80;91.50
39621;DHT22;25309;48.686;9.170;2023-04-03T18:08:44;6.70;91.50
39621;DHT22;25309;48.686;9.170;2023-04-03T18:11:13;6.70;92.00
39621;DHT22;25309;48.686;9.170;2023-04-03T18:13:41;6.60;92.00
39621;DHT22;25309;48.686;9.170;2023-04-03T18:16:09;6.60;92.20
39621;DHT22;25309;48.686;9.170;2023-04-03T18:18:36;6.50;92.30
39621;DHT22;25309;48.686;9.170;2023-04-03T18:21:04;6.50;92.30
39621;DHT22;25309;48.686;9.170;2023-04-03T18:23:33;6.50;92.20
39621;DHT22;25309;48.686;9.170;2023-04-03T18:26:02;6.40;92.40
39621;DHT22;25309;48.686;9.170;2023-04-03T18:28:30;6.40;92.60
39621;DHT22;25309;48.686;9.170;2023-04-03T18:30:58;6.40;92.30
39621;DHT22;25309;48.686;9.170;2023-04-03T18:33:26;6.30;92.40
39621;DHT22;25309;48.686;9.170;2023-04-03T18:35:53;6.20;92.50
39621;DHT22;25309;48.686;9.170;2023-04-03T18:38:20;6.10;92.60
39621;DHT22;25309;48.686;9.170;2023-04-03T18:40:47;6.10;92.70
39621;DHT22;25309;48.686;9.170;2023-04-03T18:43:15;6.00;92.90
39621;DHT22;25309;48.686;9.170;2023-04-03T18:45:45;6.00;93.10
39621;DHT22;25309;48.686;9.170;2023-04-03T18:48:12;6.00;93.10
39621;DHT22;25309;48.686;9.170;2023-04-03T18:50:39;6.00;93.10
39621;DHT22;25309;48.686;9.170;2023-04-03T18:53:06;6.00;93.00
39621;DHT22;25309;48.686;9.170;2023-04-03T18:55:33;6.00;93.10
39621;DHT22;25309;48.686;9.170;2023-04-03T18:58:01;6.00;93.20
39621;DHT22;25309;48.686;9.170;2023-04-03T19:00:28;6.00;93.20
39621;DHT22;25309;48.686;9.170;2023-04-03T19:02:56;5.90;93.40
39621;DHT22;25309;48.686;9.170;2023-04-03T19:05:23;5.90;93.40
39621;DHT22;25309;48.686;9.170;2023-04-03T19:07:53;5.90;93.50
39621;DHT22;25309;48.686;9.170;2023-04-03T19:10:21;5.90;93.50
39621;DHT22;25309;48.686;9.170;2023-04-03T19:12:49;5.80;93.50